sensor_id;sensor_type;location;lat;lon;timestamp;P1;durP1;ratioP1;P2;durP2;ratioP2
70067;SDS011;57425;51.616;6.680;2022-10-20T00:00:11;6.90;;;2.53;;
70067;SDS011;57425;51.616;6.680;2022-10-20T00:02:37;6.40;;;2.80;;
70067;SDS011;57425;51.616;6.680;2022-10-20T00:05:03;6.17;;;2.77;;
70067;SDS011;57425;51.616;6.680;2022-10-20T00:07:29;7.97;;;2.43;;
70067;SDS011;57425;51.616;6.680;2022-10-20T00:09:54;8.40;;;3.03;;
70067;SDS011;57425;51.616;6.680;2022-10-20T00:12:20;8.67;;;2.83;;
70067;SDS011;57425;51.616;6.680;2022-10-20T00:14:45;5.60;;;2.50;;
70067;SDS011;57425;51.616;6.680;2022-10-20T00:17:11;11.10;;;3.23;;
70067;SDS011;57425;51.616;6.680;2022-10-20T00:19:37;6.37;;;2.43;;
70067;SDS011;57425;51.616;6.680;2022-10-20T00:22:02;5.07;;;2.60;;
70067;SDS011;57425;51.616;6.680;2022-10-20T00:24:28;8.70;;;3.30;;
70067;SDS011;57425;51.616;6.680;2022-10-20T00:26:54;11.33;;;2.77;;
70067;SDS011;57425;51.616;6.680;2022-10-20T00:29:19;8.47;;;3.10;;
70067;SDS011;57425;51.616;6.680;2022-10-20T00:31:45;12.70;;;2.80;;
70067;SDS011;57425;51.616;6.680;2022-10-20T00:34:11;7.03;;;2.67;;
70067;SDS011;57425;51.616;6.680;2022-10-20T00:36:37;13.57;;;2.87;;
70067;SDS011;57425;51.616;6.680;2022-10-20T00:39:04;4.93;;;2.73;;
70067;SDS011;57425;51.616;6.680;2022-10-20T00:41:31;6.90;;;3.40;;
70067;SDS011;57425;51.616;6.680;2022-10-20T00:43:58;3.93;;;2.93;;
70067;SDS011;57425;51.616;6.680;2022-10-20T00:46:46;4.47;;;2.93;;
70067;SDS011;57425;51.616;6.680;2022-10-20T00:49:21;5.40;;;3.07;;
70067;SDS011;57425;51.616;6.680;2022-10-20T00:51:49;4.43;;;3.13;;
70067;SDS011;57425;51.616;6.680;2022-10-20T00:54:19;4.60;;;2.60;;
70067;SDS011;57425;51.616;6.680;2022-10-20T00:56:51;5.75;;;2.80;;
70067;SDS011;57425;51.616;6.680;2022-10-20T00:59:20;13.57;;;3.30;;
70067;SDS011;57425;51.616;6.680;2022-10-20T01:01:49;10.73;;;3.53;;
70067;SDS011;57425;51.616;6.680;2022-10-20T01:04:15;7.27;;;3.07;;
70067;SDS011;57425;51.616;6.680;2022-10-20T01:06:41;9.53;;;3.30;;
70067;SDS011;57425;51.616;6.680;2022-10-20T01:09:07;9.67;;;3.27;;
70067;SDS011;57425;51.616;6.680;2022-10-20T01:11:53;6.60;;;2.70;;
70067;SDS011;57425;51.616;6.680;2022-10-20T01:14:42;10.18;;;2.95;;
70067;SDS011;57425;51.616;6.680;2022-10-20T01:17:20;6.13;;;3.43;;
70067;SDS011;57425;51.616;6.680;2022-10-20T01:31:40;8.77;;;3.13;;
70067;SDS011;57425;51.616;6.680;2022-10-20T01:34:19;4.90;;;2.92;;
70067;SDS011;57425;51.616;6.680;2022-10-20T01:37:10;8.00;;;2.80;;
70067;SDS011;57425;51.616;6.680;2022-10-20T01:40:05;12.00;;;3.43;;
70067;SDS011;57425;51.616;6.680;2022-10-20T01:42:33;4.83;;;2.60;;
70067;SDS011;57425;51.616;6.680;2022-10-20T01:45:01;8.67;;;3.10;;
70067;SDS011;57425;51.616;6.680;2022-10-20T01:47:29;15.23;;;3.20;;
70067;SDS011;57425;51.616;6.680;2022-10-20T01:49:58;6.47;;;3.00;;
70067;SDS011;57425;51.616;6.680;2022-10-20T01:52:27;13.93;;;3.63;;
70067;SDS011;57425;51.616;6.680;2022-10-20T01:54:53;5.90;;;2.97;;
70067;SDS011;57425;51.616;6.680;2022-10-20T02:00:17;7.97;;;2.90;;
70067;SDS011;57425;51.616;6.680;2022-10-20T02:08:09;9.97;;;3.93;;
70067;SDS011;57425;51.616;6.680;2022-10-20T02:10:40;4.57;;;3.20;;
70067;SDS011;57425;51.616;6.680;2022-10-20T02:13:19;9.10;;;2.90;;
70067;SDS011;57425;51.616;6.680;2022-10-20T02:15:52;6.73;;;3.67;;
70067;SDS011;57425;51.616;6.680;2022-10-20T02:18:22;5.90;;;2.90;;
70067;SDS011;57425;51.616;6.680;2022-10-20T02:20:51;6.37;;;3.63;;
70067;SDS011;57425;51.616;6.680;2022-10-20T02:23:20;11.73;;;3.20;;
70067;SDS011;57425;51.616;6.680;2022-10-20T02:25:47;3.87;;;2.67;;
70067;SDS011;57425;51.616;6.680;2022-10-20T02:28:15;12.23;;;3.47;;
70067;SDS011;57425;51.616;6.680;2022-10-20T02:30:41;7.80;;;2.77;;
70067;SDS011;57425;51.616;6.680;2022-10-20T02:33:09;5.63;;;3.30;;
70067;SDS011;57425;51.616;6.680;2022-10-20T02:35:36;6.90;;;3.03;;
70067;SDS011;57425;51.616;6.680;2022-10-20T02:38:02;6.43;;;3.13;;
70067;SDS011;57425;51.616;6.680;2022-10-20T02:40:28;6.70;;;3.50;;
70067;SDS011;57425;51.616;6.680;2022-10-20T02:42:54;5.43;;;2.97;;
70067;SDS011;57425;51.616;6.680;2022-10-20T02:45:19;6.00;;;2.43;;
70067;SDS011;57425;51.616;6.680;2022-10-20T02:47:45;6.87;;;3.13;;
70067;SDS011;57425;51.616;6.680;2022-10-20T02:50:11;13.40;;;3.00;;
70067;SDS011;57425;51.616;6.680;2022-10-20T02:52:37;13.50;;;3.13;;
70067;SDS011;57425;51.616;6.680;2022-10-20T02:55:04;8.87;;;3.10;;
70067;SDS011;57425;51.616;6.680;2022-10-20T02:57:30;5.00;;;3.33;;
70067;SDS011;57425;51.616;6.680;2022-10-20T02:59:55;5.57;;;3.33;;
70067;SDS011;57425;51.616;6.680;2022-10-20T03:02:21;9.40;;;2.73;;
70067;SDS011;57425;51.616;6.680;2022-10-20T03:04:46;6.67;;;3.23;;
70067;SDS011;57425;51.616;6.680;2022-10-20T03:07:12;5.67;;;3.03;;
70067;SDS011;57425;51.616;6.680;2022-10-20T03:09:38;5.07;;;2.97;;
70067;SDS011;57425;51.616;6.680;2022-10-20T03:12:04;4.30;;;2.90;;
70067;SDS011;57425;51.616;6.680;2022-10-20T03:14:30;4.70;;;2.60;;
70067;SDS011;57425;51.616;6.680;2022-10-20T03:16:55;10.10;;;3.43;;
70067;SDS011;57425;51.616;6.680;2022-10-20T03:19:21;10.20;;;3.07;;
70067;SDS011;57425;51.616;6.680;2022-10-20T03:21:46;10.53;;;3.20;;
70067;SDS011;57425;51.616;6.680;2022-10-20T03:24:13;5.00;;;3.07;;
70067;SDS011;57425;51.616;6.680;2022-10-20T03:26:40;6.07;;;2.80;;
70067;SDS011;57425;51.616;6.680;2022-10-20T03:29:05;6.17;;;2.77;;
70067;SDS011;57425;51.616;6.680;2022-10-20T03:31:31;14.07;;;3.60;;
70067;SDS011;57425;51.616;6.680;2022-10-20T03:33:57;8.43;;;3.27;;
70067;SDS011;57425;51.616;6.680;2022-10-20T03:36:23;8.57;;;3.57;;
70067;SDS011;57425;51.616;6.680;2022-10-20T03:38:48;6.60;;;3.77;;
70067;SDS011;57425;51.616;6.680;2022-10-20T03:41:14;11.27;;;3.43;;
70067;SDS011;57425;51.616;6.680;2022-10-20T03:43:40;6.63;;;3.43;;
70067;SDS011;57425;51.616;6.680;2022-10-20T03:46:07;8.87;;;3.63;;
70067;SDS011;57425;51.616;6.680;2022-10-20T03:48:34;11.33;;;3.53;;
70067;SDS011;57425;51.616;6.680;2022-10-20T03:51:00;5.80;;;3.20;;
70067;SDS011;57425;51.616;6.680;2022-10-20T03:53:26;5.10;;;3.10;;
70067;SDS011;57425;51.616;6.680;2022-10-20T03:55:52;7.57;;;3.60;;
70067;SDS011;57425;51.616;6.680;2022-10-20T03:58:18;7.40;;;3.57;;
70067;SDS011;57425;51.616;6.680;2022-10-20T04:00:44;9.20;;;2.97;;
70067;SDS011;57425;51.616;6.680;2022-10-20T04:03:10;13.93;;;4.90;;
70067;SDS011;57425;51.616;6.680;2022-10-20T04:05:36;7.20;;;3.23;;
70067;SDS011;57425;51.616;6.680;2022-10-20T04:08:01;6.53;;;3.07;;
70067;SDS011;57425;51.616;6.680;2022-10-20T04:10:28;10.70;;;4.07;;
70067;SDS011;57425;51.616;6.680;2022-10-20T04:12:57;13.40;;;4.10;;
70067;SDS011;57425;51.616;6.680;2022-10-20T04:15:24;5.57;;;3.23;;
70067;SDS011;57425;51.616;6.680;2022-10-20T04:17:50;5.77;;;3.50;;
70067;SDS011;57425;51.616;6.680;2022-10-20T04:20:15;8.93;;;4.23;;
70067;SDS011;57425;51.616;6.680;2022-10-20T04:22:41;17.87;;;3.50;;
70067;SDS011;57425;51.616;6.680;2022-10-20T04:25:07;6.17;;;3.40;;
70067;SDS011;57425;51.616;6.680;2022-10-20T04:27:33;7.57;;;4.10;;
70067;SDS011;57425;51.616;6.680;2022-10-20T04:29:59;6.90;;;3.27;;
70067;SDS011;57425;51.616;6.680;2022-10-20T04:32:25;13.60;;;4.10;;
70067;SDS011;57425;51.616;6.680;2022-10-20T04:34:50;7.97;;;3.73;;
70067;SDS011;57425;51.616;6.680;2022-10-20T04:37:17;15.50;;;4.33;;
70067;SDS011;57425;51.616;6.680;2022-10-20T04:39:42;11.30;;;3.40;;
70067;SDS011;57425;51.616;6.680;2022-10-20T04:42:08;8.63;;;3.57;;
70067;SDS011;57425;51.616;6.680;2022-10-20T04:44:34;8.10;;;4.07;;
70067;SDS011;57425;51.616;6.680;2022-10-20T04:47:02;14.17;;;3.70;;
70067;SDS011;57425;51.616;6.680;2022-10-20T04:49:28;12.07;;;4.13;;
70067;SDS011;57425;51.616;6.680;2022-10-20T04:51:53;7.90;;;3.63;;
70067;SDS011;57425;51.616;6.680;2022-10-20T04:54:19;9.07;;;4.10;;
70067;SDS011;57425;51.616;6.680;2022-10-20T04:56:45;8.13;;;3.70;;
70067;SDS011;57425;51.616;6.680;2022-10-20T04:59:11;5.17;;;3.50;;
70067;SDS011;57425;51.616;6.680;2022-10-20T05:01:37;10.87;;;4.17;;
70067;SDS011;57425;51.616;6.680;2022-10-20T05:04:03;7.17;;;3.77;;
70067;SDS011;57425;51.616;6.680;2022-10-20T05:06:29;7.50;;;3.37;;
70067;SDS011;57425;51.616;6.680;2022-10-20T05:08:57;9.33;;;3.80;;
70067;SDS011;57425;51.616;6.680;2022-10-20T05:11:25;8.13;;;4.67;;
70067;SDS011;57425;51.616;6.680;2022-10-20T05:13:53;7.50;;;3.73;;
70067;SDS011;57425;51.616;6.680;2022-10-20T05:16:19;5.57;;;3.63;;
70067;SDS011;57425;51.616;6.680;2022-10-20T05:18:45;7.67;;;3.93;;
70067;SDS011;57425;51.616;6.680;2022-10-20T05:21:16;7.40;;;4.07;;
70067;SDS011;57425;51.616;6.680;2022-10-20T05:23:43;5.33;;;3.10;;
70067;SDS011;57425;51.616;6.680;2022-10-20T05:26:11;7.33;;;3.73;;
70067;SDS011;57425;51.616;6.680;2022-10-20T05:28:38;13.47;;;3.80;;
70067;SDS011;57425;51.616;6.680;2022-10-20T05:31:07;7.07;;;3.70;;
70067;SDS011;57425;51.616;6.680;2022-10-20T05:33:33;9.90;;;3.83;;
70067;SDS011;57425;51.616;6.680;2022-10-20T05:36:04;6.27;;;3.73;;
70067;SDS011;57425;51.616;6.680;2022-10-20T05:38:31;8.90;;;4.23;;
70067;SDS011;57425;51.616;6.680;2022-10-20T05:41:19;12.33;;;3.30;;
70067;SDS011;57425;51.616;6.680;2022-10-20T05:43:48;6.90;;;3.73;;
70067;SDS011;57425;51.616;6.680;2022-10-20T05:46:16;5.53;;;3.00;;
70067;SDS011;57425;51.616;6.680;2022-10-20T05:48:43;11.23;;;3.57;;
70067;SDS011;57425;51.616;6.680;2022-10-20T05:51:14;8.23;;;3.13;;
70067;SDS011;57425;51.616;6.680;2022-10-20T05:53:44;6.67;;;3.97;;
70067;SDS011;57425;51.616;6.680;2022-10-20T05:56:15;9.73;;;4.87;;
70067;SDS011;57425;51.616;6.680;2022-10-20T05:58:42;11.47;;;4.50;;
70067;SDS011;57425;51.616;6.680;2022-10-20T06:01:10;11.93;;;3.77;;
70067;SDS011;57425;51.616;6.680;2022-10-20T06:06:14;6.40;;;3.50;;
70067;SDS011;57425;51.616;6.680;2022-10-20T06:08:41;10.00;;;3.80;;
70067;SDS011;57425;51.616;6.680;2022-10-20T06:11:07;6.50;;;3.73;;
70067;SDS011;57425;51.616;6.680;2022-10-20T06:13:34;7.07;;;3.47;;
70067;SDS011;57425;51.616;6.680;2022-10-20T06:16:04;6.63;;;3.63;;
70067;SDS011;57425;51.616;6.680;2022-10-20T06:18:32;10.23;;;4.07;;
70067;SDS011;57425;51.616;6.680;2022-10-20T06:20:59;9.23;;;3.63;;
70067;SDS011;57425;51.616;6.680;2022-10-20T06:23:26;10.50;;;4.63;;
70067;SDS011;57425;51.616;6.680;2022-10-20T06:25:52;10.17;;;4.80;;
70067;SDS011;57425;51.616;6.680;2022-10-20T06:28:17;12.37;;;5.10;;
70067;SDS011;57425;51.616;6.680;2022-10-20T06:30:43;9.33;;;3.90;;
70067;SDS011;57425;51.616;6.680;2022-10-20T06:33:08;10.23;;;4.27;;
70067;SDS011;57425;51.616;6.680;2022-10-20T06:35:36;14.07;;;3.50;;
70067;SDS011;57425;51.616;6.680;2022-10-20T06:38:02;9.27;;;4.07;;
70067;SDS011;57425;51.616;6.680;2022-10-20T06:40:28;11.33;;;4.60;;
70067;SDS011;57425;51.616;6.680;2022-10-20T06:42:53;10.40;;;4.60;;
70067;SDS011;57425;51.616;6.680;2022-10-20T06:45:19;8.63;;;4.07;;
70067;SDS011;57425;51.616;6.680;2022-10-20T06:47:45;7.67;;;4.13;;
70067;SDS011;57425;51.616;6.680;2022-10-20T06:50:10;8.43;;;4.53;;
70067;SDS011;57425;51.616;6.680;2022-10-20T06:52:36;9.53;;;4.47;;
70067;SDS011;57425;51.616;6.680;2022-10-20T06:55:01;14.40;;;5.00;;
70067;SDS011;57425;51.616;6.680;2022-10-20T06:57:29;8.27;;;4.70;;
70067;SDS011;57425;51.616;6.680;2022-10-20T06:59:56;11.67;;;4.80;;
70067;SDS011;57425;51.616;6.680;2022-10-20T07:02:21;8.53;;;4.93;;
70067;SDS011;57425;51.616;6.680;2022-10-20T07:04:48;6.50;;;3.97;;
70067;SDS011;57425;51.616;6.680;2022-10-20T07:07:14;10.57;;;4.40;;
70067;SDS011;57425;51.616;6.680;2022-10-20T07:09:40;7.50;;;4.73;;
70067;SDS011;57425;51.616;6.680;2022-10-20T07:12:05;12.43;;;5.17;;
70067;SDS011;57425;51.616;6.680;2022-10-20T07:14:31;21.17;;;4.70;;
70067;SDS011;57425;51.616;6.680;2022-10-20T07:17:01;8.60;;;4.83;;
70067;SDS011;57425;51.616;6.680;2022-10-20T07:19:27;12.17;;;5.50;;
70067;SDS011;57425;51.616;6.680;2022-10-20T07:21:53;7.47;;;4.37;;
70067;SDS011;57425;51.616;6.680;2022-10-20T07:24:18;17.70;;;5.30;;
70067;SDS011;57425;51.616;6.680;2022-10-20T07:26:44;11.40;;;4.80;;
70067;SDS011;57425;51.616;6.680;2022-10-20T07:29:10;12.83;;;5.57;;
70067;SDS011;57425;51.616;6.680;2022-10-20T07:31:38;10.13;;;4.50;;
70067;SDS011;57425;51.616;6.680;2022-10-20T07:34:08;10.20;;;4.03;;
70067;SDS011;57425;51.616;6.680;2022-10-20T07:36:35;13.10;;;4.70;;
70067;SDS011;57425;51.616;6.680;2022-10-20T07:39:03;8.10;;;4.73;;
70067;SDS011;57425;51.616;6.680;2022-10-20T07:41:30;8.57;;;4.70;;
70067;SDS011;57425;51.616;6.680;2022-10-20T07:43:57;10.63;;;4.27;;
70067;SDS011;57425;51.616;6.680;2022-10-20T07:46:22;12.67;;;4.90;;
70067;SDS011;57425;51.616;6.680;2022-10-20T07:48:48;11.13;;;5.00;;
70067;SDS011;57425;51.616;6.680;2022-10-20T07:51:25;14.70;;;5.43;;
70067;SDS011;57425;51.616;6.680;2022-10-20T07:53:56;10.57;;;4.90;;
70067;SDS011;57425;51.616;6.680;2022-10-20T07:56:37;12.43;;;4.10;;
70067;SDS011;57425;51.616;6.680;2022-10-20T07:59:04;8.40;;;4.97;;
70067;SDS011;57425;51.616;6.680;2022-10-20T08:01:31;7.77;;;4.17;;
70067;SDS011;57425;51.616;6.680;2022-10-20T08:03:57;10.87;;;5.50;;
70067;SDS011;57425;51.616;6.680;2022-10-20T08:06:23;8.97;;;5.03;;
70067;SDS011;57425;51.616;6.680;2022-10-20T08:08:49;14.47;;;4.80;;
70067;SDS011;57425;51.616;6.680;2022-10-20T08:11:15;9.33;;;3.83;;
70067;SDS011;57425;51.616;6.680;2022-10-20T08:13:41;10.10;;;4.87;;
70067;SDS011;57425;51.616;6.680;2022-10-20T08:16:07;9.20;;;4.47;;
70067;SDS011;57425;51.616;6.680;2022-10-20T08:18:34;9.07;;;4.63;;
70067;SDS011;57425;51.616;6.680;2022-10-20T08:21:11;15.93;;;4.50;;
70067;SDS011;57425;51.616;6.680;2022-10-20T08:23:39;9.43;;;4.77;;
70067;SDS011;57425;51.616;6.680;2022-10-20T08:26:06;9.63;;;4.30;;
70067;SDS011;57425;51.616;6.680;2022-10-20T08:28:34;15.00;;;4.83;;
70067;SDS011;57425;51.616;6.680;2022-10-20T08:31:00;7.67;;;4.33;;
70067;SDS011;57425;51.616;6.680;2022-10-20T08:33:27;7.43;;;4.20;;
70067;SDS011;57425;51.616;6.680;2022-10-20T08:35:53;11.90;;;4.50;;
70067;SDS011;57425;51.616;6.680;2022-10-20T08:38:18;11.10;;;4.70;;
70067;SDS011;57425;51.616;6.680;2022-10-20T08:40:44;10.97;;;5.47;;
70067;SDS011;57425;51.616;6.680;2022-10-20T08:43:15;9.00;;;5.27;;
70067;SDS011;57425;51.616;6.680;2022-10-20T08:45:42;16.23;;;6.15;;
70067;SDS011;57425;51.616;6.680;2022-10-20T08:48:10;9.33;;;5.20;;
70067;SDS011;57425;51.616;6.680;2022-10-20T08:50:43;10.50;;;5.67;;
70067;SDS011;57425;51.616;6.680;2022-10-20T08:53:10;12.23;;;5.53;;
70067;SDS011;57425;51.616;6.680;2022-10-20T08:55:36;14.50;;;6.10;;
70067;SDS011;57425;51.616;6.680;2022-10-20T08:58:06;17.00;;;6.40;;
70067;SDS011;57425;51.616;6.680;2022-10-20T09:00:40;12.87;;;5.07;;
70067;SDS011;57425;51.616;6.680;2022-10-20T09:03:17;11.30;;;5.73;;
70067;SDS011;57425;51.616;6.680;2022-10-20T09:05:52;10.80;;;4.93;;
70067;SDS011;57425;51.616;6.680;2022-10-20T09:08:21;13.05;;;6.10;;
70067;SDS011;57425;51.616;6.680;2022-10-20T09:10:50;13.13;;;5.63;;
70067;SDS011;57425;51.616;6.680;2022-10-20T09:13:19;13.30;;;4.90;;
70067;SDS011;57425;51.616;6.680;2022-10-20T09:16:04;16.30;;;5.53;;
70067;SDS011;57425;51.616;6.680;2022-10-20T09:18:35;10.90;;;4.07;;
70067;SDS011;57425;51.616;6.680;2022-10-20T09:21:04;15.40;;;4.50;;
70067;SDS011;57425;51.616;6.680;2022-10-20T09:23:45;11.30;;;4.37;;
70067;SDS011;57425;51.616;6.680;2022-10-20T09:26:20;8.60;;;4.13;;
70067;SDS011;57425;51.616;6.680;2022-10-20T09:28:48;11.97;;;4.00;;
70067;SDS011;57425;51.616;6.680;2022-10-20T09:31:57;9.77;;;3.97;;
70067;SDS011;57425;51.616;6.680;2022-10-20T09:36:47;10.87;;;4.00;;
70067;SDS011;57425;51.616;6.680;2022-10-20T09:39:23;13.20;;;4.57;;
70067;SDS011;57425;51.616;6.680;2022-10-20T09:42:02;21.90;;;4.78;;
70067;SDS011;57425;51.616;6.680;2022-10-20T09:44:31;13.40;;;4.33;;
70067;SDS011;57425;51.616;6.680;2022-10-20T09:47:03;8.27;;;3.83;;
70067;SDS011;57425;51.616;6.680;2022-10-20T09:49:35;14.77;;;5.63;;
70067;SDS011;57425;51.616;6.680;2022-10-20T09:52:03;7.83;;;3.83;;
70067;SDS011;57425;51.616;6.680;2022-10-20T09:54:47;8.00;;;4.33;;
70067;SDS011;57425;51.616;6.680;2022-10-20T09:57:17;13.27;;;5.10;;
70067;SDS011;57425;51.616;6.680;2022-10-20T09:59:45;21.20;;;5.30;;
70067;SDS011;57425;51.616;6.680;2022-10-20T10:04:40;14.97;;;4.77;;
70067;SDS011;57425;51.616;6.680;2022-10-20T10:12:23;14.40;;;4.53;;
70067;SDS011;57425;51.616;6.680;2022-10-20T10:14:51;15.40;;;5.10;;
70067;SDS011;57425;51.616;6.680;2022-10-20T10:17:31;10.33;;;4.53;;
70067;SDS011;57425;51.616;6.680;2022-10-20T10:20:47;19.27;;;4.50;;
70067;SDS011;57425;51.616;6.680;2022-10-20T10:25:45;20.07;;;5.40;;
70067;SDS011;57425;51.616;6.680;2022-10-20T10:28:23;13.83;;;6.73;;
70067;SDS011;57425;51.616;6.680;2022-10-20T10:31:05;17.63;;;5.40;;
70067;SDS011;57425;51.616;6.680;2022-10-20T10:33:40;12.57;;;5.20;;
70067;SDS011;57425;51.616;6.680;2022-10-20T10:36:09;11.87;;;3.57;;
70067;SDS011;57425;51.616;6.680;2022-10-20T10:38:40;11.83;;;4.50;;
70067;SDS011;57425;51.616;6.680;2022-10-20T10:43:57;6.83;;;3.90;;
70067;SDS011;57425;51.616;6.680;2022-10-20T10:46:33;7.83;;;3.67;;
70067;SDS011;57425;51.616;6.680;2022-10-20T10:51:44;8.50;;;4.10;;
70067;SDS011;57425;51.616;6.680;2022-10-20T10:54:28;6.90;;;3.60;;
70067;SDS011;57425;51.616;6.680;2022-10-20T10:57:35;7.70;;;3.85;;
70067;SDS011;57425;51.616;6.680;2022-10-20T11:00:14;12.43;;;5.23;;
70067;SDS011;57425;51.616;6.680;2022-10-20T11:02:57;7.73;;;3.60;;
70067;SDS011;57425;51.616;6.680;2022-10-20T11:05:39;8.57;;;3.97;;
70067;SDS011;57425;51.616;6.680;2022-10-20T11:21:21;15.53;;;5.23;;
70067;SDS011;57425;51.616;6.680;2022-10-20T11:26:38;11.20;;;4.67;;
70067;SDS011;57425;51.616;6.680;2022-10-20T11:29:15;8.97;;;4.83;;
70067;SDS011;57425;51.616;6.680;2022-10-20T11:31:57;17.00;;;6.00;;
70067;SDS011;57425;51.616;6.680;2022-10-20T11:34:28;16.70;;;4.53;;
70067;SDS011;57425;51.616;6.680;2022-10-20T11:36:59;11.27;;;4.93;;
70067;SDS011;57425;51.616;6.680;2022-10-20T11:42:37;10.83;;;5.57;;
70067;SDS011;57425;51.616;6.680;2022-10-20T11:47:49;8.27;;;4.37;;
70067;SDS011;57425;51.616;6.680;2022-10-20T11:50:21;17.15;;;4.43;;
70067;SDS011;57425;51.616;6.680;2022-10-20T12:04:03;13.77;;;4.85;;
70067;SDS011;57425;51.616;6.680;2022-10-20T12:13:15;12.97;;;5.70;;
70067;SDS011;57425;51.616;6.680;2022-10-20T12:15:53;15.52;;;5.90;;
70067;SDS011;57425;51.616;6.680;2022-10-20T12:18:23;8.50;;;4.43;;
70067;SDS011;57425;51.616;6.680;2022-10-20T12:20:52;10.45;;;4.53;;
70067;SDS011;57425;51.616;6.680;2022-10-20T12:28:53;8.83;;;4.67;;
70067;SDS011;57425;51.616;6.680;2022-10-20T12:31:19;13.27;;;5.43;;
70067;SDS011;57425;51.616;6.680;2022-10-20T12:38:42;11.55;;;6.20;;
70067;SDS011;57425;51.616;6.680;2022-10-20T12:41:09;10.47;;;6.07;;
70067;SDS011;57425;51.616;6.680;2022-10-20T12:43:48;12.10;;;4.90;;
70067;SDS011;57425;51.616;6.680;2022-10-20T12:46:21;14.97;;;5.27;;
70067;SDS011;57425;51.616;6.680;2022-10-20T12:48:53;11.57;;;5.80;;
70067;SDS011;57425;51.616;6.680;2022-10-20T12:51:31;12.13;;;5.72;;
70067;SDS011;57425;51.616;6.680;2022-10-20T12:56:27;12.85;;;5.88;;
70067;SDS011;57425;51.616;6.680;2022-10-20T13:15:30;10.70;;;6.22;;
70067;SDS011;57425;51.616;6.680;2022-10-20T13:18:26;10.98;;;6.60;;
70067;SDS011;57425;51.616;6.680;2022-10-20T13:21:01;15.52;;;6.97;;
70067;SDS011;57425;51.616;6.680;2022-10-20T13:29:32;24.90;;;7.50;;
70067;SDS011;57425;51.616;6.680;2022-10-20T13:45:49;20.23;;;7.05;;
70067;SDS011;57425;51.616;6.680;2022-10-20T13:48:25;24.42;;;7.20;;
70067;SDS011;57425;51.616;6.680;2022-10-20T13:53:44;13.13;;;5.43;;
70067;SDS011;57425;51.616;6.680;2022-10-20T13:58:41;22.55;;;7.53;;
70067;SDS011;57425;51.616;6.680;2022-10-20T14:01:21;17.27;;;7.00;;
70067;SDS011;57425;51.616;6.680;2022-10-20T14:03:49;23.05;;;8.00;;
70067;SDS011;57425;51.616;6.680;2022-10-20T14:09:16;19.40;;;7.45;;
70067;SDS011;57425;51.616;6.680;2022-10-20T14:11:48;19.58;;;7.45;;
70067;SDS011;57425;51.616;6.680;2022-10-20T14:14:19;28.55;;;7.05;;
70067;SDS011;57425;51.616;6.680;2022-10-20T14:16:51;25.45;;;7.30;;
70067;SDS011;57425;51.616;6.680;2022-10-20T14:19:25;20.95;;;7.07;;
70067;SDS011;57425;51.616;6.680;2022-10-20T14:21:52;23.58;;;7.00;;
70067;SDS011;57425;51.616;6.680;2022-10-20T14:24:33;19.15;;;6.90;;
70067;SDS011;57425;51.616;6.680;2022-10-20T14:27:02;24.90;;;6.93;;
70067;SDS011;57425;51.616;6.680;2022-10-20T14:29:34;16.45;;;6.43;;
70067;SDS011;57425;51.616;6.680;2022-10-20T14:32:04;16.52;;;6.80;;
70067;SDS011;57425;51.616;6.680;2022-10-20T14:34:32;17.65;;;8.43;;
70067;SDS011;57425;51.616;6.680;2022-10-20T14:36:59;12.90;;;6.82;;
70067;SDS011;57425;51.616;6.680;2022-10-20T14:39:34;24.75;;;6.63;;
70067;SDS011;57425;51.616;6.680;2022-10-20T14:42:03;8.48;;;4.10;;
70067;SDS011;57425;51.616;6.680;2022-10-20T14:44:50;14.63;;;6.20;;
70067;SDS011;57425;51.616;6.680;2022-10-20T14:47:17;21.38;;;6.30;;
70067;SDS011;57425;51.616;6.680;2022-10-20T14:49:49;15.52;;;5.13;;
70067;SDS011;57425;51.616;6.680;2022-10-20T14:54:42;15.57;;;5.72;;
70067;SDS011;57425;51.616;6.680;2022-10-20T15:02:37;14.40;;;6.60;;
70067;SDS011;57425;51.616;6.680;2022-10-20T15:07:50;13.13;;;5.65;;
70067;SDS011;57425;51.616;6.680;2022-10-20T15:10:19;17.92;;;7.25;;
70067;SDS011;57425;51.616;6.680;2022-10-20T15:12:47;14.02;;;5.57;;
70067;SDS011;57425;51.616;6.680;2022-10-20T15:15:25;14.90;;;5.88;;
70067;SDS011;57425;51.616;6.680;2022-10-20T15:22:59;13.65;;;6.55;;
70067;SDS011;57425;51.616;6.680;2022-10-20T15:31:06;13.23;;;5.20;;
70067;SDS011;57425;51.616;6.680;2022-10-20T15:34:01;12.30;;;5.13;;
70067;SDS011;57425;51.616;6.680;2022-10-20T15:36:28;15.57;;;5.30;;
70067;SDS011;57425;51.616;6.680;2022-10-20T15:38:57;10.95;;;4.78;;
70067;SDS011;57425;51.616;6.680;2022-10-20T15:41:25;14.27;;;5.15;;
70067;SDS011;57425;51.616;6.680;2022-10-20T15:43:54;10.27;;;5.90;;
70067;SDS011;57425;51.616;6.680;2022-10-20T15:46:20;18.20;;;5.55;;
70067;SDS011;57425;51.616;6.680;2022-10-20T15:48:46;14.02;;;5.65;;
70067;SDS011;57425;51.616;6.680;2022-10-20T15:53:52;16.80;;;5.53;;
70067;SDS011;57425;51.616;6.680;2022-10-20T15:56:19;19.25;;;5.57;;
70067;SDS011;57425;51.616;6.680;2022-10-20T15:58:45;17.15;;;5.50;;
70067;SDS011;57425;51.616;6.680;2022-10-20T16:01:13;10.65;;;5.07;;
70067;SDS011;57425;51.616;6.680;2022-10-20T16:03:40;11.48;;;5.35;;
70067;SDS011;57425;51.616;6.680;2022-10-20T16:06:07;14.23;;;5.65;;
70067;SDS011;57425;51.616;6.680;2022-10-20T16:08:34;17.38;;;4.93;;
70067;SDS011;57425;51.616;6.680;2022-10-20T16:11:01;14.80;;;5.47;;
70067;SDS011;57425;51.616;6.680;2022-10-20T16:13:27;11.35;;;4.90;;
70067;SDS011;57425;51.616;6.680;2022-10-20T16:15:52;15.00;;;5.43;;
70067;SDS011;57425;51.616;6.680;2022-10-20T16:18:18;17.42;;;6.40;;
70067;SDS011;57425;51.616;6.680;2022-10-20T16:20:43;8.95;;;5.35;;
70067;SDS011;57425;51.616;6.680;2022-10-20T16:23:09;9.35;;;5.40;;
70067;SDS011;57425;51.616;6.680;2022-10-20T16:25:37;13.70;;;5.85;;
70067;SDS011;57425;51.616;6.680;2022-10-20T16:28:03;12.82;;;5.38;;
70067;SDS011;57425;51.616;6.680;2022-10-20T16:30:29;10.77;;;5.20;;
70067;SDS011;57425;51.616;6.680;2022-10-20T16:32:55;11.68;;;4.90;;
70067;SDS011;57425;51.616;6.680;2022-10-20T16:35:21;13.88;;;5.50;;
70067;SDS011;57425;51.616;6.680;2022-10-20T16:37:47;12.60;;;5.25;;
70067;SDS011;57425;51.616;6.680;2022-10-20T16:40:14;13.02;;;5.50;;
70067;SDS011;57425;51.616;6.680;2022-10-20T16:42:40;13.52;;;5.90;;
70067;SDS011;57425;51.616;6.680;2022-10-20T16:45:06;13.98;;;5.85;;
70067;SDS011;57425;51.616;6.680;2022-10-20T16:47:32;12.18;;;6.22;;
70067;SDS011;57425;51.616;6.680;2022-10-20T16:49:58;13.48;;;5.93;;
70067;SDS011;57425;51.616;6.680;2022-10-20T16:52:23;11.13;;;5.72;;
70067;SDS011;57425;51.616;6.680;2022-10-20T16:54:49;16.42;;;6.15;;
70067;SDS011;57425;51.616;6.680;2022-10-20T16:57:14;15.82;;;5.30;;
70067;SDS011;57425;51.616;6.680;2022-10-20T16:59:40;11.27;;;6.10;;
70067;SDS011;57425;51.616;6.680;2022-10-20T17:02:08;13.68;;;5.20;;
70067;SDS011;57425;51.616;6.680;2022-10-20T17:04:35;16.38;;;5.32;;
70067;SDS011;57425;51.616;6.680;2022-10-20T17:07:01;16.35;;;5.95;;
70067;SDS011;57425;51.616;6.680;2022-10-20T17:09:27;15.15;;;5.38;;
70067;SDS011;57425;51.616;6.680;2022-10-20T17:11:54;10.20;;;6.07;;
70067;SDS011;57425;51.616;6.680;2022-10-20T17:14:20;14.65;;;6.15;;
70067;SDS011;57425;51.616;6.680;2022-10-20T17:16:46;8.88;;;5.28;;
70067;SDS011;57425;51.616;6.680;2022-10-20T17:19:12;11.27;;;5.40;;
70067;SDS011;57425;51.616;6.680;2022-10-20T17:21:38;15.05;;;5.70;;
70067;SDS011;57425;51.616;6.680;2022-10-20T17:24:05;11.65;;;5.47;;
70067;SDS011;57425;51.616;6.680;2022-10-20T17:26:34;14.05;;;5.95;;
70067;SDS011;57425;51.616;6.680;2022-10-20T17:28:59;12.57;;;6.25;;
70067;SDS011;57425;51.616;6.680;2022-10-20T17:31:25;18.83;;;5.97;;
70067;SDS011;57425;51.616;6.680;2022-10-20T17:33:51;15.07;;;5.90;;